sensor_id;sensor_type;location;lat;lon;timestamp;P1;durP1;ratioP1;P2;durP2;ratioP2
10452;SDS011;5274;51.992;8.518;2022-12-07T00:01:32;276.53;;;31.10;;
10452;SDS011;5274;51.992;8.518;2022-12-07T00:04:01;230.27;;;30.83;;
10452;SDS011;5274;51.992;8.518;2022-12-07T00:06:32;115.60;;;23.53;;
10452;SDS011;5274;51.992;8.518;2022-12-07T00:08:59;417.90;;;37.20;;
10452;SDS011;5274;51.992;8.518;2022-12-07T00:11:24;110.70;;;22.00;;
10452;SDS011;5274;51.992;8.518;2022-12-07T00:13:54;384.87;;;39.63;;
10452;SDS011;5274;51.992;8.518;2022-12-07T00:16:24;369.97;;;37.47;;
10452;SDS011;5274;51.992;8.518;2022-12-07T00:18:52;315.23;;;32.33;;
10452;SDS011;5274;51.992;8.518;2022-12-07T00:21:19;461.27;;;40.93;;
10452;SDS011;5274;51.992;8.518;2022-12-07T00:23:47;258.57;;;31.37;;
10452;SDS011;5274;51.992;8.518;2022-12-07T00:26:15;210.00;;;29.80;;
10452;SDS011;5274;51.992;8.518;2022-12-07T00:28:49;392.13;;;40.50;;
10452;SDS011;5274;51.992;8.518;2022-12-07T00:31:18;339.73;;;36.93;;
10452;SDS011;5274;51.992;8.518;2022-12-07T00:33:45;569.87;;;49.20;;
10452;SDS011;5274;51.992;8.518;2022-12-07T00:36:12;182.60;;;31.33;;
10452;SDS011;5274;51.992;8.518;2022-12-07T00:38:40;451.80;;;43.40;;
10452;SDS011;5274;51.992;8.518;2022-12-07T00:41:10;145.40;;;28.37;;
10452;SDS011;5274;51.992;8.518;2022-12-07T00:43:38;91.03;;;28.10;;
10452;SDS011;5274;51.992;8.518;2022-12-07T00:46:04;56.27;;;25.87;;
10452;SDS011;5274;51.992;8.518;2022-12-07T00:48:30;63.30;;;25.80;;
10452;SDS011;5274;51.992;8.518;2022-12-07T00:50:56;64.93;;;27.50;;
10452;SDS011;5274;51.992;8.518;2022-12-07T00:53:22;63.77;;;26.20;;
10452;SDS011;5274;51.992;8.518;2022-12-07T00:55:47;129.27;;;31.63;;
10452;SDS011;5274;51.992;8.518;2022-12-07T00:58:13;64.97;;;27.63;;
10452;SDS011;5274;51.992;8.518;2022-12-07T01:00:40;57.53;;;25.63;;
10452;SDS011;5274;51.992;8.518;2022-12-07T01:03:07;56.97;;;26.27;;
10452;SDS011;5274;51.992;8.518;2022-12-07T01:05:35;73.90;;;28.20;;
10452;SDS011;5274;51.992;8.518;2022-12-07T01:08:00;59.70;;;27.03;;
10452;SDS011;5274;51.992;8.518;2022-12-07T01:10:26;53.43;;;26.10;;
10452;SDS011;5274;51.992;8.518;2022-12-07T01:12:52;53.33;;;25.07;;
10452;SDS011;5274;51.992;8.518;2022-12-07T01:15:18;51.77;;;24.77;;
10452;SDS011;5274;51.992;8.518;2022-12-07T01:17:43;41.73;;;23.60;;
10452;SDS011;5274;51.992;8.518;2022-12-07T01:20:09;39.57;;;21.60;;
10452;SDS011;5274;51.992;8.518;2022-12-07T01:22:38;39.77;;;20.20;;
10452;SDS011;5274;51.992;8.518;2022-12-07T01:25:08;39.00;;;20.53;;
10452;SDS011;5274;51.992;8.518;2022-12-07T01:27:35;38.20;;;21.37;;
10452;SDS011;5274;51.992;8.518;2022-12-07T01:30:02;33.10;;;18.60;;
10452;SDS011;5274;51.992;8.518;2022-12-07T01:32:29;36.03;;;19.73;;
10452;SDS011;5274;51.992;8.518;2022-12-07T01:34:55;35.53;;;19.17;;
10452;SDS011;5274;51.992;8.518;2022-12-07T01:37:20;36.30;;;19.87;;
10452;SDS011;5274;51.992;8.518;2022-12-07T01:39:50;37.63;;;19.40;;
10452;SDS011;5274;51.992;8.518;2022-12-07T01:42:16;35.63;;;19.27;;
10452;SDS011;5274;51.992;8.518;2022-12-07T01:47:43;38.97;;;19.73;;
10452;SDS011;5274;51.992;8.518;2022-12-07T01:50:15;31.23;;;18.63;;
10452;SDS011;5274;51.992;8.518;2022-12-07T01:52:41;37.93;;;19.20;;
10452;SDS011;5274;51.992;8.518;2022-12-07T01:55:10;34.60;;;18.13;;
10452;SDS011;5274;51.992;8.518;2022-12-07T01:57:39;32.53;;;18.53;;
10452;SDS011;5274;51.992;8.518;2022-12-07T02:00:09;31.10;;;16.13;;
10452;SDS011;5274;51.992;8.518;2022-12-07T02:02:43;32.87;;;16.57;;
10452;SDS011;5274;51.992;8.518;2022-12-07T02:05:09;36.00;;;17.50;;
10452;SDS011;5274;51.992;8.518;2022-12-07T02:07:36;32.53;;;17.20;;
10452;SDS011;5274;51.992;8.518;2022-12-07T02:10:16;28.50;;;15.60;;
10452;SDS011;5274;51.992;8.518;2022-12-07T02:12:47;29.50;;;16.30;;
10452;SDS011;5274;51.992;8.518;2022-12-07T02:15:15;26.07;;;15.87;;
10452;SDS011;5274;51.992;8.518;2022-12-07T02:20:17;32.17;;;16.47;;
10452;SDS011;5274;51.992;8.518;2022-12-07T02:26:14;30.33;;;16.00;;
10452;SDS011;5274;51.992;8.518;2022-12-07T02:29:06;28.33;;;15.70;;
10452;SDS011;5274;51.992;8.518;2022-12-07T02:31:59;23.80;;;13.80;;
10452;SDS011;5274;51.992;8.518;2022-12-07T02:34:50;29.50;;;13.67;;
10452;SDS011;5274;51.992;8.518;2022-12-07T02:37:38;21.13;;;12.87;;
10452;SDS011;5274;51.992;8.518;2022-12-07T02:40:30;23.00;;;12.93;;
10452;SDS011;5274;51.992;8.518;2022-12-07T02:43:04;23.27;;;12.03;;
10452;SDS011;5274;51.992;8.518;2022-12-07T02:45:52;26.60;;;12.53;;
10452;SDS011;5274;51.992;8.518;2022-12-07T02:48:24;22.83;;;11.83;;
10452;SDS011;5274;51.992;8.518;2022-12-07T02:50:51;21.00;;;11.27;;
10452;SDS011;5274;51.992;8.518;2022-12-07T02:56:07;20.80;;;10.53;;
10452;SDS011;5274;51.992;8.518;2022-12-07T02:58:56;20.17;;;10.23;;
10452;SDS011;5274;51.992;8.518;2022-12-07T03:04:36;18.23;;;10.03;;
10452;SDS011;5274;51.992;8.518;2022-12-07T03:10:13;20.33;;;8.87;;
10452;SDS011;5274;51.992;8.518;2022-12-07T03:15:28;18.70;;;8.87;;
10452;SDS011;5274;51.992;8.518;2022-12-07T03:18:05;22.10;;;9.13;;
10452;SDS011;5274;51.992;8.518;2022-12-07T03:20:34;23.03;;;9.03;;
10452;SDS011;5274;51.992;8.518;2022-12-07T03:23:04;18.63;;;9.37;;
10452;SDS011;5274;51.992;8.518;2022-12-07T03:25:34;19.80;;;9.30;;
10452;SDS011;5274;51.992;8.518;2022-12-07T03:28:05;18.63;;;9.50;;
10452;SDS011;5274;51.992;8.518;2022-12-07T03:30:46;19.30;;;9.97;;
10452;SDS011;5274;51.992;8.518;2022-12-07T03:33:27;21.50;;;9.10;;
10452;SDS011;5274;51.992;8.518;2022-12-07T03:38:48;16.70;;;10.23;;
10452;SDS011;5274;51.992;8.518;2022-12-07T03:41:23;14.23;;;8.93;;
10452;SDS011;5274;51.992;8.518;2022-12-07T03:43:51;17.30;;;9.37;;
10452;SDS011;5274;51.992;8.518;2022-12-07T03:46:27;18.90;;;9.43;;
10452;SDS011;5274;51.992;8.518;2022-12-07T03:49:04;16.53;;;9.60;;
10452;SDS011;5274;51.992;8.518;2022-12-07T03:51:45;19.30;;;9.50;;
10452;SDS011;5274;51.992;8.518;2022-12-07T03:54:26;14.77;;;8.47;;
10452;SDS011;5274;51.992;8.518;2022-12-07T03:57:03;18.10;;;8.73;;
10452;SDS011;5274;51.992;8.518;2022-12-07T03:59:29;17.23;;;8.43;;
10452;SDS011;5274;51.992;8.518;2022-12-07T04:01:56;13.93;;;9.00;;
10452;SDS011;5274;51.992;8.518;2022-12-07T04:04:26;13.47;;;7.97;;
10452;SDS011;5274;51.992;8.518;2022-12-07T04:06:52;15.00;;;8.67;;
10452;SDS011;5274;51.992;8.518;2022-12-07T04:09:18;16.53;;;8.13;;
10452;SDS011;5274;51.992;8.518;2022-12-07T04:11:44;12.53;;;7.27;;
10452;SDS011;5274;51.992;8.518;2022-12-07T04:14:09;14.70;;;7.67;;
10452;SDS011;5274;51.992;8.518;2022-12-07T04:16:45;19.87;;;8.47;;
10452;SDS011;5274;51.992;8.518;2022-12-07T04:19:11;16.43;;;8.10;;
10452;SDS011;5274;51.992;8.518;2022-12-07T04:21:36;12.67;;;7.57;;
10452;SDS011;5274;51.992;8.518;2022-12-07T04:24:03;15.43;;;8.60;;
10452;SDS011;5274;51.992;8.518;2022-12-07T04:26:29;13.40;;;7.27;;
10452;SDS011;5274;51.992;8.518;2022-12-07T04:28:54;14.80;;;7.40;;
10452;SDS011;5274;51.992;8.518;2022-12-07T04:31:20;13.60;;;7.43;;
10452;SDS011;5274;51.992;8.518;2022-12-07T04:33:45;18.53;;;8.20;;
10452;SDS011;5274;51.992;8.518;2022-12-07T04:36:11;13.87;;;7.67;;
10452;SDS011;5274;51.992;8.518;2022-12-07T04:38:36;14.20;;;7.73;;
10452;SDS011;5274;51.992;8.518;2022-12-07T04:41:05;14.73;;;8.10;;
10452;SDS011;5274;51.992;8.518;2022-12-07T04:43:32;17.00;;;7.67;;
10452;SDS011;5274;51.992;8.518;2022-12-07T04:45:58;13.13;;;7.63;;
10452;SDS011;5274;51.992;8.518;2022-12-07T04:48:23;12.00;;;7.67;;
10452;SDS011;5274;51.992;8.518;2022-12-07T04:50:49;16.90;;;8.20;;
10452;SDS011;5274;51.992;8.518;2022-12-07T04:53:15;18.13;;;7.33;;
10452;SDS011;5274;51.992;8.518;2022-12-07T04:55:40;17.00;;;8.17;;
10452;SDS011;5274;51.992;8.518;2022-12-07T04:58:06;16.50;;;8.00;;
10452;SDS011;5274;51.992;8.518;2022-12-07T05:00:31;13.17;;;7.63;;
10452;SDS011;5274;51.992;8.518;2022-12-07T05:02:57;15.07;;;8.53;;
10452;SDS011;5274;51.992;8.518;2022-12-07T05:05:23;17.60;;;8.23;;
10452;SDS011;5274;51.992;8.518;2022-12-07T05:07:49;14.73;;;7.53;;
10452;SDS011;5274;51.992;8.518;2022-12-07T05:10:15;16.80;;;7.70;;
10452;SDS011;5274;51.992;8.518;2022-12-07T05:12:41;17.13;;;8.37;;
10452;SDS011;5274;51.992;8.518;2022-12-07T05:15:07;18.50;;;8.17;;
10452;SDS011;5274;51.992;8.518;2022-12-07T05:17:33;12.23;;;7.23;;
10452;SDS011;5274;51.992;8.518;2022-12-07T05:19:58;13.93;;;7.90;;
10452;SDS011;5274;51.992;8.518;2022-12-07T05:22:24;18.37;;;7.57;;
10452;SDS011;5274;51.992;8.518;2022-12-07T05:24:53;11.20;;;7.17;;
10452;SDS011;5274;51.992;8.518;2022-12-07T05:27:19;14.43;;;7.37;;
10452;SDS011;5274;51.992;8.518;2022-12-07T05:29:44;22.13;;;7.83;;
10452;SDS011;5274;51.992;8.518;2022-12-07T05:32:10;15.80;;;8.57;;
10452;SDS011;5274;51.992;8.518;2022-12-07T05:34:35;12.93;;;8.20;;
10452;SDS011;5274;51.992;8.518;2022-12-07T05:37:01;15.97;;;7.33;;
10452;SDS011;5274;51.992;8.518;2022-12-07T05:39:27;19.77;;;8.37;;
10452;SDS011;5274;51.992;8.518;2022-12-07T05:41:52;17.53;;;8.27;;
10452;SDS011;5274;51.992;8.518;2022-12-07T05:44:47;14.33;;;7.97;;
10452;SDS011;5274;51.992;8.518;2022-12-07T05:47:13;11.77;;;7.53;;
10452;SDS011;5274;51.992;8.518;2022-12-07T05:49:39;13.90;;;7.60;;
10452;SDS011;5274;51.992;8.518;2022-12-07T05:52:05;18.70;;;7.47;;
10452;SDS011;5274;51.992;8.518;2022-12-07T05:54:31;17.37;;;7.90;;
10452;SDS011;5274;51.992;8.518;2022-12-07T05:56:57;14.93;;;7.87;;
10452;SDS011;5274;51.992;8.518;2022-12-07T05:59:23;15.53;;;8.13;;
10452;SDS011;5274;51.992;8.518;2022-12-07T06:01:52;15.03;;;7.53;;
10452;SDS011;5274;51.992;8.518;2022-12-07T06:04:27;20.83;;;7.43;;
10452;SDS011;5274;51.992;8.518;2022-12-07T06:06:55;15.00;;;7.40;;
10452;SDS011;5274;51.992;8.518;2022-12-07T06:09:21;15.37;;;7.90;;
10452;SDS011;5274;51.992;8.518;2022-12-07T06:11:48;14.13;;;8.07;;
10452;SDS011;5274;51.992;8.518;2022-12-07T06:14:32;14.37;;;7.10;;
10452;SDS011;5274;51.992;8.518;2022-12-07T06:16:58;14.60;;;7.53;;
10452;SDS011;5274;51.992;8.518;2022-12-07T06:19:24;16.50;;;8.30;;
10452;SDS011;5274;51.992;8.518;2022-12-07T06:21:49;17.17;;;7.70;;
10452;SDS011;5274;51.992;8.518;2022-12-07T06:24:15;25.00;;;8.30;;
10452;SDS011;5274;51.992;8.518;2022-12-07T06:26:42;16.13;;;7.93;;
10452;SDS011;5274;51.992;8.518;2022-12-07T06:29:07;17.20;;;6.47;;
10452;SDS011;5274;51.992;8.518;2022-12-07T06:31:33;12.10;;;7.07;;
10452;SDS011;5274;51.992;8.518;2022-12-07T06:34:01;16.27;;;7.73;;
10452;SDS011;5274;51.992;8.518;2022-12-07T06:36:29;20.27;;;8.37;;
10452;SDS011;5274;51.992;8.518;2022-12-07T06:38:55;15.37;;;8.43;;
10452;SDS011;5274;51.992;8.518;2022-12-07T06:41:20;16.80;;;7.33;;
10452;SDS011;5274;51.992;8.518;2022-12-07T06:43:46;18.07;;;7.20;;
10452;SDS011;5274;51.992;8.518;2022-12-07T06:46:12;19.80;;;7.53;;
10452;SDS011;5274;51.992;8.518;2022-12-07T06:48:39;11.77;;;7.23;;
10452;SDS011;5274;51.992;8.518;2022-12-07T06:51:04;13.20;;;6.87;;
10452;SDS011;5274;51.992;8.518;2022-12-07T06:53:30;15.30;;;7.07;;
10452;SDS011;5274;51.992;8.518;2022-12-07T06:55:55;16.23;;;6.97;;
10452;SDS011;5274;51.992;8.518;2022-12-07T06:58:21;12.60;;;7.13;;
10452;SDS011;5274;51.992;8.518;2022-12-07T07:00:47;16.10;;;7.90;;
10452;SDS011;5274;51.992;8.518;2022-12-07T07:03:14;13.13;;;7.53;;
10452;SDS011;5274;51.992;8.518;2022-12-07T07:05:40;15.07;;;6.93;;
10452;SDS011;5274;51.992;8.518;2022-12-07T07:08:06;18.43;;;6.97;;
10452;SDS011;5274;51.992;8.518;2022-12-07T07:10:31;19.60;;;6.80;;
10452;SDS011;5274;51.992;8.518;2022-12-07T07:12:57;12.70;;;6.77;;
10452;SDS011;5274;51.992;8.518;2022-12-07T07:15:22;14.10;;;6.33;;
10452;SDS011;5274;51.992;8.518;2022-12-07T07:17:48;12.90;;;6.60;;
10452;SDS011;5274;51.992;8.518;2022-12-07T07:20:14;13.83;;;5.47;;
10452;SDS011;5274;51.992;8.518;2022-12-07T07:22:40;12.67;;;6.47;;
10452;SDS011;5274;51.992;8.518;2022-12-07T07:25:06;14.63;;;6.70;;
10452;SDS011;5274;51.992;8.518;2022-12-07T07:27:31;17.37;;;7.00;;
10452;SDS011;5274;51.992;8.518;2022-12-07T07:29:57;14.67;;;7.10;;
10452;SDS011;5274;51.992;8.518;2022-12-07T07:32:22;15.53;;;6.33;;
10452;SDS011;5274;51.992;8.518;2022-12-07T07:34:48;12.00;;;6.23;;
10452;SDS011;5274;51.992;8.518;2022-12-07T07:37:14;11.23;;;6.53;;
10452;SDS011;5274;51.992;8.518;2022-12-07T07:39:39;15.70;;;6.53;;
10452;SDS011;5274;51.992;8.518;2022-12-07T07:42:05;16.40;;;6.63;;
10452;SDS011;5274;51.992;8.518;2022-12-07T07:44:32;14.40;;;5.60;;
10452;SDS011;5274;51.992;8.518;2022-12-07T07:46:58;13.90;;;6.90;;
10452;SDS011;5274;51.992;8.518;2022-12-07T07:49:24;9.37;;;6.13;;
10452;SDS011;5274;51.992;8.518;2022-12-07T07:51:50;13.40;;;6.30;;
10452;SDS011;5274;51.992;8.518;2022-12-07T07:54:15;10.10;;;6.17;;
10452;SDS011;5274;51.992;8.518;2022-12-07T07:56:41;15.30;;;5.93;;
10452;SDS011;5274;51.992;8.518;2022-12-07T07:59:06;17.67;;;6.20;;
10452;SDS011;5274;51.992;8.518;2022-12-07T08:01:33;14.23;;;5.90;;
10452;SDS011;5274;51.992;8.518;2022-12-07T08:03:59;14.77;;;5.67;;
10452;SDS011;5274;51.992;8.518;2022-12-07T08:06:24;14.97;;;5.43;;
10452;SDS011;5274;51.992;8.518;2022-12-07T08:08:50;15.80;;;6.70;;
10452;SDS011;5274;51.992;8.518;2022-12-07T08:11:15;13.43;;;6.00;;
10452;SDS011;5274;51.992;8.518;2022-12-07T08:13:41;12.80;;;6.27;;
10452;SDS011;5274;51.992;8.518;2022-12-07T08:16:09;13.40;;;4.93;;
10452;SDS011;5274;51.992;8.518;2022-12-07T08:18:36;12.43;;;5.40;;
10452;SDS011;5274;51.992;8.518;2022-12-07T08:21:03;12.60;;;5.30;;
10452;SDS011;5274;51.992;8.518;2022-12-07T08:23:29;9.30;;;4.93;;
10452;SDS011;5274;51.992;8.518;2022-12-07T08:25:59;11.00;;;5.00;;
10452;SDS011;5274;51.992;8.518;2022-12-07T08:28:25;11.00;;;5.30;;
10452;SDS011;5274;51.992;8.518;2022-12-07T08:30:51;8.57;;;5.20;;
10452;SDS011;5274;51.992;8.518;2022-12-07T08:33:16;9.20;;;5.17;;
10452;SDS011;5274;51.992;8.518;2022-12-07T08:35:42;14.63;;;5.30;;
10452;SDS011;5274;51.992;8.518;2022-12-07T08:38:07;13.83;;;5.20;;
10452;SDS011;5274;51.992;8.518;2022-12-07T08:40:33;11.20;;;4.93;;
10452;SDS011;5274;51.992;8.518;2022-12-07T08:43:00;12.60;;;5.17;;
10452;SDS011;5274;51.992;8.518;2022-12-07T08:45:25;13.10;;;5.37;;
10452;SDS011;5274;51.992;8.518;2022-12-07T08:50:23;11.27;;;4.93;;
10452;SDS011;5274;51.992;8.518;2022-12-07T08:52:50;9.60;;;4.67;;
10452;SDS011;5274;51.992;8.518;2022-12-07T08:55:18;12.67;;;5.73;;
10452;SDS011;5274;51.992;8.518;2022-12-07T08:57:44;11.83;;;4.90;;
10452;SDS011;5274;51.992;8.518;2022-12-07T09:00:10;10.43;;;4.43;;
10452;SDS011;5274;51.992;8.518;2022-12-07T09:02:37;10.53;;;4.60;;
10452;SDS011;5274;51.992;8.518;2022-12-07T09:05:02;11.30;;;4.67;;
10452;SDS011;5274;51.992;8.518;2022-12-07T09:07:28;13.07;;;4.40;;
10452;SDS011;5274;51.992;8.518;2022-12-07T09:09:55;10.93;;;4.67;;
10452;SDS011;5274;51.992;8.518;2022-12-07T09:12:21;7.27;;;4.00;;
10452;SDS011;5274;51.992;8.518;2022-12-07T09:14:46;15.07;;;4.23;;
10452;SDS011;5274;51.992;8.518;2022-12-07T09:17:12;12.50;;;4.13;;
10452;SDS011;5274;51.992;8.518;2022-12-07T09:19:38;7.17;;;3.97;;
10452;SDS011;5274;51.992;8.518;2022-12-07T09:22:04;7.03;;;4.00;;
10452;SDS011;5274;51.992;8.518;2022-12-07T09:24:30;10.20;;;4.27;;
10452;SDS011;5274;51.992;8.518;2022-12-07T09:26:57;11.43;;;3.77;;
10452;SDS011;5274;51.992;8.518;2022-12-07T09:29:22;11.97;;;4.00;;
10452;SDS011;5274;51.992;8.518;2022-12-07T09:31:48;10.63;;;3.93;;
10452;SDS011;5274;51.992;8.518;2022-12-07T09:34:14;10.53;;;4.77;;
10452;SDS011;5274;51.992;8.518;2022-12-07T09:36:40;13.47;;;4.00;;
10452;SDS011;5274;51.992;8.518;2022-12-07T09:39:05;9.00;;;3.87;;
10452;SDS011;5274;51.992;8.518;2022-12-07T09:41:31;12.43;;;4.13;;
10452;SDS011;5274;51.992;8.518;2022-12-07T09:44:02;9.30;;;3.60;;
10452;SDS011;5274;51.992;8.518;2022-12-07T09:46:36;10.97;;;3.80;;
10452;SDS011;5274;51.992;8.518;2022-12-07T09:49:04;11.73;;;4.20;;
10452;SDS011;5274;51.992;8.518;2022-12-07T09:51:34;15.60;;;3.90;;
10452;SDS011;5274;51.992;8.518;2022-12-07T09:54:00;6.40;;;3.37;;
10452;SDS011;5274;51.992;8.518;2022-12-07T09:56:28;11.77;;;3.80;;
10452;SDS011;5274;51.992;8.518;2022-12-07T09:58:58;5.77;;;3.60;;
10452;SDS011;5274;51.992;8.518;2022-12-07T10:01:30;7.67;;;3.73;;
10452;SDS011;5274;51.992;8.518;2022-12-07T10:06:37;9.10;;;3.80;;
10452;SDS011;5274;51.992;8.518;2022-12-07T10:09:13;7.80;;;3.90;;
10452;SDS011;5274;51.992;8.518;2022-12-07T10:14:29;9.93;;;3.67;;
10452;SDS011;5274;51.992;8.518;2022-12-07T10:16:56;8.20;;;3.30;;
10452;SDS011;5274;51.992;8.518;2022-12-07T10:19:26;9.23;;;4.00;;
10452;SDS011;5274;51.992;8.518;2022-12-07T10:22:15;7.53;;;3.23;;
10452;SDS011;5274;51.992;8.518;2022-12-07T10:24:42;9.23;;;3.00;;
10452;SDS011;5274;51.992;8.518;2022-12-07T10:29:51;8.18;;;3.20;;
10452;SDS011;5274;51.992;8.518;2022-12-07T10:34:43;7.40;;;3.43;;
10452;SDS011;5274;51.992;8.518;2022-12-07T10:39:40;9.17;;;3.30;;
10452;SDS011;5274;51.992;8.518;2022-12-07T10:44:47;5.37;;;2.77;;
10452;SDS011;5274;51.992;8.518;2022-12-07T10:50:37;5.50;;;2.93;;
10452;SDS011;5274;51.992;8.518;2022-12-07T10:56:42;9.30;;;3.20;;
10452;SDS011;5274;51.992;8.518;2022-12-07T11:08:59;9.93;;;2.70;;
10452;SDS011;5274;51.992;8.518;2022-12-07T11:11:19;9.50;;;2.93;;
10452;SDS011;5274;51.992;8.518;2022-12-07T11:16:58;6.60;;;2.47;;
10452;SDS011;5274;51.992;8.518;2022-12-07T11:19:47;6.50;;;2.20;;
10452;SDS011;5274;51.992;8.518;2022-12-07T11:27:40;4.07;;;2.17;;
10452;SDS011;5274;51.992;8.518;2022-12-07T11:33:27;6.83;;;2.27;;
10452;SDS011;5274;51.992;8.518;2022-12-07T11:39:15;6.50;;;2.03;;
10452;SDS011;5274;51.992;8.518;2022-12-07T11:42:06;2.53;;;1.70;;
10452;SDS011;5274;51.992;8.518;2022-12-07T11:44:52;4.17;;;2.10;;
10452;SDS011;5274;51.992;8.518;2022-12-07T11:52:59;8.47;;;2.20;;
10452;SDS011;5274;51.992;8.518;2022-12-07T11:58:08;5.13;;;1.97;;
10452;SDS011;5274;51.992;8.518;2022-12-07T12:00:55;12.27;;;1.93;;
10452;SDS011;5274;51.992;8.518;2022-12-07T12:09:05;6.47;;;1.70;;
10452;SDS011;5274;51.992;8.518;2022-12-07T12:14:32;4.63;;;1.77;;
10452;SDS011;5274;51.992;8.518;2022-12-07T12:22:28;3.07;;;1.57;;
10452;SDS011;5274;51.992;8.518;2022-12-07T12:25:06;5.23;;;1.53;;
10452;SDS011;5274;51.992;8.518;2022-12-07T12:27:42;3.63;;;1.70;;
10452;SDS011;5274;51.992;8.518;2022-12-07T12:33:20;24.33;;;8.97;;
10452;SDS011;5274;51.992;8.518;2022-12-07T12:36:17;10.40;;;5.27;;
10452;SDS011;5274;51.992;8.518;2022-12-07T12:46:54;6.33;;;2.50;;
10452;SDS011;5274;51.992;8.518;2022-12-07T12:51:53;9.53;;;5.47;;
10452;SDS011;5274;51.992;8.518;2022-12-07T12:54:27;5.33;;;2.80;;
10452;SDS011;5274;51.992;8.518;2022-12-07T12:56:59;8.60;;;1.97;;
10452;SDS011;5274;51.992;8.518;2022-12-07T13:02:29;10.57;;;4.50;;
10452;SDS011;5274;51.992;8.518;2022-12-07T13:15:42;4.93;;;1.47;;
10452;SDS011;5274;51.992;8.518;2022-12-07T13:23:47;5.47;;;1.90;;
10452;SDS011;5274;51.992;8.518;2022-12-07T13:26:16;4.00;;;1.60;;
10452;SDS011;5274;51.992;8.518;2022-12-07T13:29:06;7.37;;;2.27;;
10452;SDS011;5274;51.992;8.518;2022-12-07T13:36:52;9.23;;;2.30;;
10452;SDS011;5274;51.992;8.518;2022-12-07T13:39:19;8.57;;;1.87;;
10452;SDS011;5274;51.992;8.518;2022-12-07T13:41:51;9.40;;;1.80;;
10452;SDS011;5274;51.992;8.518;2022-12-07T13:44:22;6.50;;;1.80;;
10452;SDS011;5274;51.992;8.518;2022-12-07T13:49:47;5.50;;;2.10;;
10452;SDS011;5274;51.992;8.518;2022-12-07T13:52:19;3.07;;;1.77;;
10452;SDS011;5274;51.992;8.518;2022-12-07T13:54:55;4.50;;;1.87;;
10452;SDS011;5274;51.992;8.518;2022-12-07T13:57:21;9.33;;;2.00;;
10452;SDS011;5274;51.992;8.518;2022-12-07T13:59:49;4.77;;;1.60;;
10452;SDS011;5274;51.992;8.518;2022-12-07T14:04:50;10.33;;;2.10;;
10452;SDS011;5274;51.992;8.518;2022-12-07T14:12:22;4.57;;;2.10;;
10452;SDS011;5274;51.992;8.518;2022-12-07T14:14:49;3.97;;;1.67;;
10452;SDS011;5274;51.992;8.518;2022-12-07T14:17:17;7.30;;;2.13;;
10452;SDS011;5274;51.992;8.518;2022-12-07T14:19:46;6.00;;;2.20;;
10452;SDS011;5274;51.992;8.518;2022-12-07T14:22:22;4.53;;;1.80;;
10452;SDS011;5274;51.992;8.518;2022-12-07T14:24:57;10.67;;;2.23;;
10452;SDS011;5274;51.992;8.518;2022-12-07T14:27:39;3.17;;;1.87;;
10452;SDS011;5274;51.992;8.518;2022-12-07T14:30:15;8.37;;;1.73;;
10452;SDS011;5274;51.992;8.518;2022-12-07T14:32:42;3.80;;;1.50;;
10452;SDS011;5274;51.992;8.518;2022-12-07T14:35:13;6.47;;;2.20;;
10452;SDS011;5274;51.992;8.518;2022-12-07T14:37:42;5.00;;;2.17;;
10452;SDS011;5274;51.992;8.518;2022-12-07T14:40:12;6.00;;;2.30;;
10452;SDS011;5274;51.992;8.518;2022-12-07T14:42:39;8.03;;;3.20;;
10452;SDS011;5274;51.992;8.518;2022-12-07T14:45:12;11.47;;;2.90;;
10452;SDS011;5274;51.992;8.518;2022-12-07T14:47:39;7.23;;;2.53;;
10452;SDS011;5274;51.992;8.518;2022-12-07T14:50:05;8.57;;;2.53;;
10452;SDS011;5274;51.992;8.518;2022-12-07T14:52:31;8.33;;;2.37;;
10452;SDS011;5274;51.992;8.518;2022-12-07T14:54:57;9.70;;;2.40;;
10452;SDS011;5274;51.992;8.518;2022-12-07T14:57:22;4.63;;;1.87;;
10452;SDS011;5274;51.992;8.518;2022-12-07T14:59:48;5.93;;;2.13;;
10452;SDS011;5274;51.992;8.518;2022-12-07T15:02:14;5.63;;;2.10;;
10452;SDS011;5274;51.992;8.518;2022-12-07T15:04:40;8.87;;;2.87;;
10452;SDS011;5274;51.992;8.518;2022-12-07T15:07:09;5.00;;;1.93;;
10452;SDS011;5274;51.992;8.518;2022-12-07T15:09:44;5.47;;;2.30;;
10452;SDS011;5274;51.992;8.518;2022-12-07T15:12:10;4.93;;;2.07;;
10452;SDS011;5274;51.992;8.518;2022-12-07T15:14:36;7.40;;;2.00;;
10452;SDS011;5274;51.992;8.518;2022-12-07T15:17:01;8.13;;;2.17;;
10452;SDS011;5274;51.992;8.518;2022-12-07T15:19:27;6.63;;;2.87;;
10452;SDS011;5274;51.992;8.518;2022-12-07T15:21:53;6.97;;;2.03;;
10452;SDS011;5274;51.992;8.518;2022-12-07T15:24:19;6.63;;;2.43;;
10452;SDS011;5274;51.992;8.518;2022-12-07T15:26:45;7.83;;;2.00;;
10452;SDS011;5274;51.992;8.518;2022-12-07T15:29:11;7.97;;;2.07;;
10452;SDS011;5274;51.992;8.518;2022-12-07T15:31:39;5.60;;;2.43;;
10452;SDS011;5274;51.992;8.518;2022-12-07T15:34:05;7.80;;;2.70;;
10452;SDS011;5274;51.992;8.518;2022-12-07T15:36:31;2.40;;;1.90;;
10452;SDS011;5274;51.992;8.518;2022-12-07T15:38:58;11.57;;;2.57;;
10452;SDS011;5274;51.992;8.518;2022-12-07T15:41:24;5.87;;;2.70;;
10452;SDS011;5274;51.992;8.518;2022-12-07T15:43:50;5.30;;;2.17;;
10452;SDS011;5274;51.992;8.518;2022-12-07T15:46:38;7.33;;;2.40;;
10452;SDS011;5274;51.992;8.518;2022-12-07T15:49:10;10.10;;;2.40;;
10452;SDS011;5274;51.992;8.518;2022-12-07T15:51:38;8.03;;;2.70;;
10452;SDS011;5274;51.992;8.518;2022-12-07T15:54:03;9.47;;;2.60;;
10452;SDS011;5274;51.992;8.518;2022-12-07T15:56:29;7.20;;;2.77;;
10452;SDS011;5274;51.992;8.518;2022-12-07T15:58:55;5.57;;;3.17;;
10452;SDS011;5274;51.992;8.518;2022-12-07T16:01:21;10.63;;;3.00;;
10452;SDS011;5274;51.992;8.518;2022-12-07T16:03:47;4.77;;;2.97;;
10452;SDS011;5274;51.992;8.518;2022-12-07T16:06:15;7.00;;;3.27;;
10452;SDS011;5274;51.992;8.518;2022-12-07T16:08:45;7.80;;;3.50;;
10452;SDS011;5274;51.992;8.518;2022-12-07T16:11:12;7.33;;;4.20;;
10452;SDS011;5274;51.992;8.518;2022-12-07T16:13:38;9.37;;;4.20;;
10452;SDS011;5274;51.992;8.518;2022-12-07T16:16:05;6.80;;;3.77;;
10452;SDS011;5274;51.992;8.518;2022-12-07T16:18:33;13.87;;;4.73;;
10452;SDS011;5274;51.992;8.518;2022-12-07T16:20:59;8.90;;;4.20;;
10452;SDS011;5274;51.992;8.518;2022-12-07T16:23:26;7.57;;;4.43;;
10452;SDS011;5274;51.992;8.518;2022-12-07T16:25:52;8.73;;;5.00;;
10452;SDS011;5274;51.992;8.518;2022-12-07T16:28:18;8.87;;;4.10;;
10452;SDS011;5274;51.992;8.518;2022-12-07T16:30:43;8.10;;;5.17;;
10452;SDS011;5274;51.992;8.518;2022-12-07T16:33:09;15.03;;;4.50;;
10452;SDS011;5274;51.992;8.518;2022-12-07T16:35:37;5.50;;;3.80;;
10452;SDS011;5274;51.992;8.518;2022-12-07T16:38:05;10.10;;;4.50;;
10452;SDS011;5274;51.992;8.518;2022-12-07T16:40:31;9.97;;;4.97;;
10452;SDS011;5274;51.992;8.518;2022-12-07T16:42:57;9.27;;;3.97;;
10452;SDS011;5274;51.992;8.518;2022-12-07T16:45:23;11.37;;;4.37;;
10452;SDS011;5274;51.992;8.518;2022-12-07T16:47:48;6.73;;;3.63;;
10452;SDS011;5274;51.992;8.518;2022-12-07T16:50:14;10.03;;;3.67;;
10452;SDS011;5274;51.992;8.518;2022-12-07T16:52:39;16.90;;;4.47;;
10452;SDS011;5274;51.992;8.518;2022-12-07T16:55:05;6.60;;;3.77;;
10452;SDS011;5274;51.992;8.518;2022-12-07T16:57:31;8.80;;;4.00;;
10452;SDS011;5274;51.992;8.518;2022-12-07T16:59:56;7.90;;;3.80;;
10452;SDS011;5274;51.992;8.518;2022-12-07T17:02:22;5.73;;;3.30;;
10452;SDS011;5274;51.992;8.518;2022-12-07T17:04:48;11.10;;;3.97;;
10452;SDS011;5274;51.992;8.518;2022-12-07T17:07:13;7.53;;;3.20;;
10452;SDS011;5274;51.992;8.518;2022-12-07T17:09:39;10.17;;;3.83;;
10452;SDS011;5274;51.992;8.518;2022-12-07T17:12:04;8.13;;;3.43;;
10452;SDS011;5274;51.992;8.518;2022-12-07T17:14:31;7.40;;;4.37;;
10452;SDS011;5274;51.992;8.518;2022-12-07T17:17:15;10.60;;;4.73;;
10452;SDS011;5274;51.992;8.518;2022-12-07T17:19:40;14.60;;;4.03;;
10452;SDS011;5274;51.992;8.518;2022-12-07T17:22:07;9.17;;;4.73;;